Radford, Virginia
Current Conditions -  °F | °C
As of 2:35 PM on Thursday 27 Nov 2014 (Local Time) from KPSK Reporting Station
Overcast Overcast  
Wind Chill: 26°   Ceiling: 2800
Heat Index: 35°   Visibility: 10mi
Dew Point: 28°   Wind: 14mph
Humidity: 73%   Direction: 300°WNW
Pressure: 30.11"   Gusts: 17mph
Location:  37.12°N, 80.59°W
Report Text: KPSK 271935Z AUTO 30012G15KT 10SM OVC028 02/M02 A3011 RMK AO2 T00191025
Loading
Personal Weather Stations






























Interactive Weather Map New forecast layout! Learn more

10-Day Weather Forecast

Advertisements
Track Severe Weather on mobile